sensor_id;sensor_type;location;lat;lon;timestamp;P1;durP1;ratioP1;P2;durP2;ratioP2
12916;SDS011;6526;54.312;13.092;2023-11-19T00:00:33;2.80;;;2.37;;
12916;SDS011;6526;54.312;13.092;2023-11-19T00:02:59;1.30;;;1.20;;
12916;SDS011;6526;54.312;13.092;2023-11-19T00:05:26;1.60;;;1.50;;
12916;SDS011;6526;54.312;13.092;2023-11-19T00:07:55;0.73;;;0.73;;
12916;SDS011;6526;54.312;13.092;2023-11-19T00:10:21;1.13;;;1.03;;
12916;SDS011;6526;54.312;13.092;2023-11-19T00:12:48;2.67;;;2.37;;
12916;SDS011;6526;54.312;13.092;2023-11-19T00:15:15;3.33;;;2.57;;
12916;SDS011;6526;54.312;13.092;2023-11-19T00:17:44;0.93;;;0.57;;
12916;SDS011;6526;54.312;13.092;2023-11-19T00:20:11;3.43;;;2.57;;
12916;SDS011;6526;54.312;13.092;2023-11-19T00:22:38;2.07;;;1.93;;
12916;SDS011;6526;54.312;13.092;2023-11-19T00:25:05;3.73;;;2.67;;
12916;SDS011;6526;54.312;13.092;2023-11-19T00:27:31;2.83;;;1.77;;
12916;SDS011;6526;54.312;13.092;2023-11-19T00:29:57;1.23;;;1.03;;
12916;SDS011;6526;54.312;13.092;2023-11-19T00:32:23;2.57;;;2.27;;
12916;SDS011;6526;54.312;13.092;2023-11-19T00:34:50;2.60;;;1.97;;
12916;SDS011;6526;54.312;13.092;2023-11-19T00:37:16;1.73;;;1.37;;
12916;SDS011;6526;54.312;13.092;2023-11-19T00:39:42;0.67;;;0.67;;
12916;SDS011;6526;54.312;13.092;2023-11-19T00:42:08;1.63;;;1.07;;
12916;SDS011;6526;54.312;13.092;2023-11-19T00:44:35;2.30;;;2.00;;
12916;SDS011;6526;54.312;13.092;2023-11-19T00:47:01;1.30;;;1.20;;
12916;SDS011;6526;54.312;13.092;2023-11-19T00:49:27;1.20;;;1.07;;
12916;SDS011;6526;54.312;13.092;2023-11-19T00:51:53;3.43;;;2.77;;
12916;SDS011;6526;54.312;13.092;2023-11-19T00:54:19;2.23;;;2.03;;
12916;SDS011;6526;54.312;13.092;2023-11-19T00:56:45;2.50;;;1.83;;
12916;SDS011;6526;54.312;13.092;2023-11-19T00:59:11;4.60;;;2.83;;
12916;SDS011;6526;54.312;13.092;2023-11-19T01:01:38;7.83;;;2.03;;
12916;SDS011;6526;54.312;13.092;2023-11-19T01:04:05;2.23;;;1.50;;
12916;SDS011;6526;54.312;13.092;2023-11-19T01:06:31;0.10;;;0.10;;
12916;SDS011;6526;54.312;13.092;2023-11-19T01:08:57;4.03;;;2.03;;
12916;SDS011;6526;54.312;13.092;2023-11-19T01:11:24;2.27;;;1.73;;
12916;SDS011;6526;54.312;13.092;2023-11-19T01:13:50;1.80;;;1.27;;
12916;SDS011;6526;54.312;13.092;2023-11-19T01:16:17;2.20;;;1.83;;
12916;SDS011;6526;54.312;13.092;2023-11-19T01:18:44;1.83;;;1.63;;
12916;SDS011;6526;54.312;13.092;2023-11-19T01:21:12;0.30;;;0.30;;
12916;SDS011;6526;54.312;13.092;2023-11-19T01:23:39;1.53;;;1.43;;
12916;SDS011;6526;54.312;13.092;2023-11-19T01:26:08;2.67;;;1.90;;
12916;SDS011;6526;54.312;13.092;2023-11-19T01:28:35;3.40;;;2.93;;
12916;SDS011;6526;54.312;13.092;2023-11-19T01:31:01;2.27;;;1.87;;
12916;SDS011;6526;54.312;13.092;2023-11-19T01:33:28;2.37;;;1.70;;
12916;SDS011;6526;54.312;13.092;2023-11-19T01:35:54;1.93;;;1.77;;
12916;SDS011;6526;54.312;13.092;2023-11-19T01:38:23;5.40;;;2.03;;
12916;SDS011;6526;54.312;13.092;2023-11-19T01:40:49;1.73;;;1.20;;
12916;SDS011;6526;54.312;13.092;2023-11-19T01:46:04;2.43;;;1.93;;
12916;SDS011;6526;54.312;13.092;2023-11-19T01:48:31;4.87;;;3.60;;
12916;SDS011;6526;54.312;13.092;2023-11-19T01:51:01;4.77;;;2.73;;
12916;SDS011;6526;54.312;13.092;2023-11-19T01:53:29;2.20;;;2.00;;
12916;SDS011;6526;54.312;13.092;2023-11-19T01:55:57;5.80;;;3.40;;
12916;SDS011;6526;54.312;13.092;2023-11-19T01:58:23;1.90;;;1.40;;
12916;SDS011;6526;54.312;13.092;2023-11-19T02:00:49;6.30;;;3.93;;
12916;SDS011;6526;54.312;13.092;2023-11-19T02:03:15;6.30;;;4.70;;
12916;SDS011;6526;54.312;13.092;2023-11-19T02:05:42;3.90;;;3.23;;
12916;SDS011;6526;54.312;13.092;2023-11-19T02:08:08;4.97;;;3.13;;
12916;SDS011;6526;54.312;13.092;2023-11-19T02:10:34;5.80;;;3.83;;
12916;SDS011;6526;54.312;13.092;2023-11-19T02:13:01;5.67;;;3.53;;
12916;SDS011;6526;54.312;13.092;2023-11-19T02:15:27;3.37;;;2.07;;
12916;SDS011;6526;54.312;13.092;2023-11-19T02:17:53;2.43;;;2.00;;
12916;SDS011;6526;54.312;13.092;2023-11-19T02:20:20;6.50;;;4.50;;
12916;SDS011;6526;54.312;13.092;2023-11-19T02:22:46;5.33;;;3.37;;
12916;SDS011;6526;54.312;13.092;2023-11-19T02:25:20;1.97;;;1.77;;
12916;SDS011;6526;54.312;13.092;2023-11-19T02:27:53;2.90;;;1.93;;
12916;SDS011;6526;54.312;13.092;2023-11-19T02:30:23;5.20;;;3.23;;
12916;SDS011;6526;54.312;13.092;2023-11-19T02:32:54;12.03;;;4.33;;
12916;SDS011;6526;54.312;13.092;2023-11-19T02:35:22;4.90;;;4.03;;
12916;SDS011;6526;54.312;13.092;2023-11-19T02:37:49;5.80;;;4.77;;
12916;SDS011;6526;54.312;13.092;2023-11-19T02:40:15;9.30;;;3.23;;
12916;SDS011;6526;54.312;13.092;2023-11-19T02:42:42;5.37;;;3.93;;
12916;SDS011;6526;54.312;13.092;2023-11-19T02:45:08;6.63;;;3.83;;
12916;SDS011;6526;54.312;13.092;2023-11-19T02:47:39;6.53;;;5.60;;
12916;SDS011;6526;54.312;13.092;2023-11-19T02:50:07;4.70;;;3.63;;
12916;SDS011;6526;54.312;13.092;2023-11-19T02:52:39;4.37;;;3.63;;
12916;SDS011;6526;54.312;13.092;2023-11-19T02:55:06;7.87;;;4.30;;
12916;SDS011;6526;54.312;13.092;2023-11-19T02:57:38;5.73;;;3.63;;
12916;SDS011;6526;54.312;13.092;2023-11-19T03:00:21;5.53;;;3.73;;
12916;SDS011;6526;54.312;13.092;2023-11-19T03:02:59;3.77;;;2.83;;
12916;SDS011;6526;54.312;13.092;2023-11-19T03:05:30;5.57;;;4.83;;
12916;SDS011;6526;54.312;13.092;2023-11-19T03:07:56;4.53;;;3.17;;
12916;SDS011;6526;54.312;13.092;2023-11-19T03:10:22;7.27;;;4.70;;
12916;SDS011;6526;54.312;13.092;2023-11-19T03:12:48;6.40;;;4.00;;
12916;SDS011;6526;54.312;13.092;2023-11-19T03:15:15;2.90;;;2.43;;
12916;SDS011;6526;54.312;13.092;2023-11-19T03:17:41;4.13;;;2.83;;
12916;SDS011;6526;54.312;13.092;2023-11-19T03:20:08;6.47;;;4.60;;
12916;SDS011;6526;54.312;13.092;2023-11-19T03:22:39;2.23;;;2.00;;
12916;SDS011;6526;54.312;13.092;2023-11-19T03:25:06;8.70;;;4.27;;
12916;SDS011;6526;54.312;13.092;2023-11-19T03:27:39;3.33;;;1.83;;
12916;SDS011;6526;54.312;13.092;2023-11-19T03:30:07;5.07;;;4.57;;
12916;SDS011;6526;54.312;13.092;2023-11-19T03:32:34;5.63;;;3.87;;
12916;SDS011;6526;54.312;13.092;2023-11-19T03:35:00;4.67;;;3.97;;
12916;SDS011;6526;54.312;13.092;2023-11-19T03:37:29;4.80;;;3.27;;
12916;SDS011;6526;54.312;13.092;2023-11-19T03:39:57;4.77;;;3.93;;
12916;SDS011;6526;54.312;13.092;2023-11-19T03:42:25;8.17;;;4.70;;
12916;SDS011;6526;54.312;13.092;2023-11-19T03:44:52;4.70;;;4.20;;
12916;SDS011;6526;54.312;13.092;2023-11-19T03:47:19;8.73;;;7.40;;
12916;SDS011;6526;54.312;13.092;2023-11-19T03:49:48;9.43;;;4.73;;
12916;SDS011;6526;54.312;13.092;2023-11-19T03:52:15;5.07;;;4.53;;
12916;SDS011;6526;54.312;13.092;2023-11-19T03:54:41;5.90;;;3.57;;
12916;SDS011;6526;54.312;13.092;2023-11-19T03:57:08;4.77;;;3.53;;
12916;SDS011;6526;54.312;13.092;2023-11-19T03:59:35;4.17;;;3.30;;
12916;SDS011;6526;54.312;13.092;2023-11-19T04:02:01;9.67;;;5.67;;
12916;SDS011;6526;54.312;13.092;2023-11-19T04:04:27;5.37;;;4.13;;
12916;SDS011;6526;54.312;13.092;2023-11-19T04:06:54;5.37;;;3.13;;
12916;SDS011;6526;54.312;13.092;2023-11-19T04:09:21;5.53;;;4.13;;
12916;SDS011;6526;54.312;13.092;2023-11-19T04:11:47;7.57;;;4.17;;
12916;SDS011;6526;54.312;13.092;2023-11-19T04:14:13;6.67;;;4.57;;
12916;SDS011;6526;54.312;13.092;2023-11-19T04:16:40;5.33;;;3.07;;
12916;SDS011;6526;54.312;13.092;2023-11-19T04:19:06;4.27;;;3.33;;
12916;SDS011;6526;54.312;13.092;2023-11-19T04:21:32;5.07;;;3.87;;
12916;SDS011;6526;54.312;13.092;2023-11-19T04:23:58;6.13;;;3.73;;
12916;SDS011;6526;54.312;13.092;2023-11-19T04:26:25;5.83;;;4.87;;
12916;SDS011;6526;54.312;13.092;2023-11-19T04:28:51;6.53;;;4.10;;
12916;SDS011;6526;54.312;13.092;2023-11-19T04:31:17;6.60;;;5.03;;
12916;SDS011;6526;54.312;13.092;2023-11-19T04:33:43;3.87;;;3.43;;
12916;SDS011;6526;54.312;13.092;2023-11-19T04:36:10;3.53;;;2.70;;
12916;SDS011;6526;54.312;13.092;2023-11-19T04:38:36;5.70;;;4.67;;
12916;SDS011;6526;54.312;13.092;2023-11-19T04:41:03;7.87;;;4.90;;
12916;SDS011;6526;54.312;13.092;2023-11-19T04:43:30;5.00;;;3.87;;
12916;SDS011;6526;54.312;13.092;2023-11-19T04:45:57;3.43;;;2.10;;
12916;SDS011;6526;54.312;13.092;2023-11-19T04:48:23;2.73;;;2.03;;
12916;SDS011;6526;54.312;13.092;2023-11-19T04:50:49;6.23;;;4.93;;
12916;SDS011;6526;54.312;13.092;2023-11-19T04:53:19;8.70;;;6.20;;
12916;SDS011;6526;54.312;13.092;2023-11-19T04:55:45;9.57;;;6.67;;
12916;SDS011;6526;54.312;13.092;2023-11-19T04:58:11;8.27;;;5.93;;
12916;SDS011;6526;54.312;13.092;2023-11-19T05:00:37;4.43;;;3.87;;
12916;SDS011;6526;54.312;13.092;2023-11-19T05:03:03;6.20;;;4.70;;
12916;SDS011;6526;54.312;13.092;2023-11-19T05:05:29;3.40;;;2.60;;
12916;SDS011;6526;54.312;13.092;2023-11-19T05:07:55;6.23;;;4.57;;
12916;SDS011;6526;54.312;13.092;2023-11-19T05:10:22;7.60;;;5.90;;
12916;SDS011;6526;54.312;13.092;2023-11-19T05:12:48;6.40;;;4.57;;
12916;SDS011;6526;54.312;13.092;2023-11-19T05:15:15;5.87;;;5.23;;
12916;SDS011;6526;54.312;13.092;2023-11-19T05:17:41;5.27;;;3.60;;
12916;SDS011;6526;54.312;13.092;2023-11-19T05:20:07;4.93;;;3.67;;
12916;SDS011;6526;54.312;13.092;2023-11-19T05:22:38;5.37;;;3.50;;
12916;SDS011;6526;54.312;13.092;2023-11-19T05:25:05;6.07;;;4.63;;
12916;SDS011;6526;54.312;13.092;2023-11-19T05:27:32;4.83;;;3.37;;
12916;SDS011;6526;54.312;13.092;2023-11-19T05:29:58;3.03;;;2.73;;
12916;SDS011;6526;54.312;13.092;2023-11-19T05:32:24;7.00;;;4.47;;
12916;SDS011;6526;54.312;13.092;2023-11-19T05:34:50;8.53;;;5.63;;
12916;SDS011;6526;54.312;13.092;2023-11-19T05:37:16;4.33;;;3.00;;
12916;SDS011;6526;54.312;13.092;2023-11-19T05:39:44;7.73;;;6.03;;
12916;SDS011;6526;54.312;13.092;2023-11-19T05:42:10;10.10;;;7.27;;
12916;SDS011;6526;54.312;13.092;2023-11-19T05:44:36;7.53;;;5.03;;
12916;SDS011;6526;54.312;13.092;2023-11-19T05:47:03;5.90;;;3.70;;
12916;SDS011;6526;54.312;13.092;2023-11-19T05:49:29;10.13;;;6.87;;
12916;SDS011;6526;54.312;13.092;2023-11-19T05:51:55;6.70;;;5.47;;
12916;SDS011;6526;54.312;13.092;2023-11-19T05:54:21;8.30;;;6.17;;
12916;SDS011;6526;54.312;13.092;2023-11-19T05:56:47;6.20;;;4.63;;
12916;SDS011;6526;54.312;13.092;2023-11-19T05:59:14;6.80;;;4.20;;
12916;SDS011;6526;54.312;13.092;2023-11-19T06:01:42;10.27;;;7.40;;
12916;SDS011;6526;54.312;13.092;2023-11-19T06:04:09;9.83;;;6.37;;
12916;SDS011;6526;54.312;13.092;2023-11-19T06:06:35;3.10;;;2.73;;
12916;SDS011;6526;54.312;13.092;2023-11-19T06:09:02;4.17;;;2.40;;
12916;SDS011;6526;54.312;13.092;2023-11-19T06:11:28;5.17;;;3.47;;
12916;SDS011;6526;54.312;13.092;2023-11-19T06:13:54;5.73;;;4.00;;
12916;SDS011;6526;54.312;13.092;2023-11-19T06:16:21;8.07;;;5.97;;
12916;SDS011;6526;54.312;13.092;2023-11-19T06:18:47;10.37;;;5.20;;
12916;SDS011;6526;54.312;13.092;2023-11-19T06:21:13;8.07;;;4.73;;
12916;SDS011;6526;54.312;13.092;2023-11-19T06:23:39;5.67;;;4.20;;
12916;SDS011;6526;54.312;13.092;2023-11-19T06:26:06;5.37;;;3.23;;
12916;SDS011;6526;54.312;13.092;2023-11-19T06:28:32;13.30;;;8.20;;
12916;SDS011;6526;54.312;13.092;2023-11-19T06:30:58;5.23;;;3.83;;
12916;SDS011;6526;54.312;13.092;2023-11-19T06:33:24;8.70;;;6.23;;
12916;SDS011;6526;54.312;13.092;2023-11-19T06:35:51;5.47;;;4.33;;
12916;SDS011;6526;54.312;13.092;2023-11-19T06:38:17;5.27;;;3.87;;
12916;SDS011;6526;54.312;13.092;2023-11-19T06:40:43;6.23;;;4.63;;
12916;SDS011;6526;54.312;13.092;2023-11-19T06:43:10;6.97;;;4.50;;
12916;SDS011;6526;54.312;13.092;2023-11-19T06:45:36;11.15;;;6.55;;
12916;SDS011;6526;54.312;13.092;2023-11-19T06:48:02;5.37;;;3.33;;
12916;SDS011;6526;54.312;13.092;2023-11-19T06:50:29;5.57;;;3.43;;
12916;SDS011;6526;54.312;13.092;2023-11-19T06:52:56;5.83;;;2.50;;
12916;SDS011;6526;54.312;13.092;2023-11-19T06:55:22;7.40;;;4.83;;
12916;SDS011;6526;54.312;13.092;2023-11-19T06:57:48;6.17;;;4.37;;
12916;SDS011;6526;54.312;13.092;2023-11-19T07:00:14;10.93;;;5.97;;
12916;SDS011;6526;54.312;13.092;2023-11-19T07:02:40;2.23;;;1.93;;
12916;SDS011;6526;54.312;13.092;2023-11-19T07:05:07;1.63;;;1.03;;
12916;SDS011;6526;54.312;13.092;2023-11-19T07:07:33;9.53;;;5.40;;
12916;SDS011;6526;54.312;13.092;2023-11-19T07:10:00;8.17;;;5.13;;
12916;SDS011;6526;54.312;13.092;2023-11-19T07:12:27;6.17;;;3.87;;
12916;SDS011;6526;54.312;13.092;2023-11-19T07:14:53;4.27;;;3.33;;
12916;SDS011;6526;54.312;13.092;2023-11-19T07:17:20;9.43;;;5.13;;
12916;SDS011;6526;54.312;13.092;2023-11-19T07:19:46;8.97;;;5.30;;
12916;SDS011;6526;54.312;13.092;2023-11-19T07:22:14;9.07;;;6.73;;
12916;SDS011;6526;54.312;13.092;2023-11-19T07:24:40;8.63;;;5.50;;
12916;SDS011;6526;54.312;13.092;2023-11-19T07:27:06;4.57;;;4.00;;
12916;SDS011;6526;54.312;13.092;2023-11-19T07:29:33;9.60;;;6.23;;
12916;SDS011;6526;54.312;13.092;2023-11-19T07:32:00;9.43;;;6.87;;
12916;SDS011;6526;54.312;13.092;2023-11-19T07:34:27;10.87;;;6.60;;
12916;SDS011;6526;54.312;13.092;2023-11-19T07:36:54;6.93;;;4.87;;
12916;SDS011;6526;54.312;13.092;2023-11-19T07:39:24;9.50;;;6.77;;
12916;SDS011;6526;54.312;13.092;2023-11-19T07:41:50;7.67;;;4.80;;
12916;SDS011;6526;54.312;13.092;2023-11-19T07:44:16;4.00;;;2.53;;
12916;SDS011;6526;54.312;13.092;2023-11-19T07:46:42;2.97;;;2.77;;
12916;SDS011;6526;54.312;13.092;2023-11-19T07:49:09;2.23;;;2.13;;
12916;SDS011;6526;54.312;13.092;2023-11-19T07:51:36;7.33;;;2.40;;
12916;SDS011;6526;54.312;13.092;2023-11-19T07:54:03;9.50;;;5.07;;
12916;SDS011;6526;54.312;13.092;2023-11-19T07:56:29;5.33;;;3.27;;
12916;SDS011;6526;54.312;13.092;2023-11-19T07:58:55;9.03;;;5.10;;
12916;SDS011;6526;54.312;13.092;2023-11-19T08:01:21;8.63;;;4.00;;
12916;SDS011;6526;54.312;13.092;2023-11-19T08:03:48;3.77;;;3.10;;
12916;SDS011;6526;54.312;13.092;2023-11-19T08:06:14;8.00;;;3.87;;
12916;SDS011;6526;54.312;13.092;2023-11-19T08:08:40;9.40;;;6.03;;
12916;SDS011;6526;54.312;13.092;2023-11-19T08:11:06;8.83;;;5.43;;
12916;SDS011;6526;54.312;13.092;2023-11-19T08:13:32;9.13;;;6.77;;
12916;SDS011;6526;54.312;13.092;2023-11-19T08:15:58;7.17;;;4.20;;
12916;SDS011;6526;54.312;13.092;2023-11-19T08:18:24;10.37;;;5.87;;
12916;SDS011;6526;54.312;13.092;2023-11-19T08:20:50;8.60;;;5.40;;
12916;SDS011;6526;54.312;13.092;2023-11-19T08:23:18;6.67;;;4.47;;
12916;SDS011;6526;54.312;13.092;2023-11-19T08:25:45;3.73;;;3.10;;
12916;SDS011;6526;54.312;13.092;2023-11-19T08:28:11;6.13;;;3.50;;
12916;SDS011;6526;54.312;13.092;2023-11-19T08:30:37;9.03;;;2.97;;
12916;SDS011;6526;54.312;13.092;2023-11-19T08:33:04;7.03;;;5.13;;
12916;SDS011;6526;54.312;13.092;2023-11-19T08:35:32;4.77;;;4.00;;
12916;SDS011;6526;54.312;13.092;2023-11-19T08:37:58;1.27;;;1.17;;
12916;SDS011;6526;54.312;13.092;2023-11-19T08:40:24;5.67;;;3.47;;
12916;SDS011;6526;54.312;13.092;2023-11-19T08:42:54;6.33;;;4.17;;
12916;SDS011;6526;54.312;13.092;2023-11-19T08:45:21;6.53;;;3.43;;
12916;SDS011;6526;54.312;13.092;2023-11-19T08:47:47;6.80;;;5.30;;
12916;SDS011;6526;54.312;13.092;2023-11-19T08:50:13;8.67;;;4.77;;
12916;SDS011;6526;54.312;13.092;2023-11-19T08:52:39;5.77;;;4.00;;
12916;SDS011;6526;54.312;13.092;2023-11-19T08:55:05;8.47;;;5.90;;
12916;SDS011;6526;54.312;13.092;2023-11-19T08:57:32;7.10;;;5.30;;
12916;SDS011;6526;54.312;13.092;2023-11-19T08:59:58;6.53;;;3.63;;
12916;SDS011;6526;54.312;13.092;2023-11-19T09:02:24;5.70;;;3.67;;
12916;SDS011;6526;54.312;13.092;2023-11-19T09:04:50;10.77;;;7.27;;
12916;SDS011;6526;54.312;13.092;2023-11-19T09:07:16;4.90;;;3.33;;
12916;SDS011;6526;54.312;13.092;2023-11-19T09:09:42;6.77;;;4.63;;
12916;SDS011;6526;54.312;13.092;2023-11-19T09:12:08;7.40;;;4.27;;
12916;SDS011;6526;54.312;13.092;2023-11-19T09:14:34;10.97;;;6.03;;
12916;SDS011;6526;54.312;13.092;2023-11-19T09:17:00;7.47;;;4.53;;
12916;SDS011;6526;54.312;13.092;2023-11-19T09:19:26;5.23;;;3.03;;
12916;SDS011;6526;54.312;13.092;2023-11-19T09:21:53;1.37;;;0.77;;
12916;SDS011;6526;54.312;13.092;2023-11-19T09:24:19;9.47;;;2.90;;
12916;SDS011;6526;54.312;13.092;2023-11-19T09:26:45;6.13;;;4.30;;
12916;SDS011;6526;54.312;13.092;2023-11-19T09:29:11;7.10;;;4.90;;
12916;SDS011;6526;54.312;13.092;2023-11-19T09:31:39;7.90;;;3.57;;
12916;SDS011;6526;54.312;13.092;2023-11-19T09:34:05;14.97;;;5.37;;
12916;SDS011;6526;54.312;13.092;2023-11-19T09:36:31;3.87;;;3.30;;
12916;SDS011;6526;54.312;13.092;2023-11-19T09:38:57;6.33;;;3.63;;
12916;SDS011;6526;54.312;13.092;2023-11-19T09:41:25;7.20;;;2.43;;
12916;SDS011;6526;54.312;13.092;2023-11-19T09:43:52;8.70;;;4.53;;
12916;SDS011;6526;54.312;13.092;2023-11-19T09:46:19;4.40;;;3.20;;
12916;SDS011;6526;54.312;13.092;2023-11-19T09:48:45;3.23;;;2.03;;
12916;SDS011;6526;54.312;13.092;2023-11-19T09:51:13;9.70;;;5.70;;
12916;SDS011;6526;54.312;13.092;2023-11-19T09:53:39;1.73;;;1.53;;
12916;SDS011;6526;54.312;13.092;2023-11-19T09:56:06;7.70;;;5.50;;
12916;SDS011;6526;54.312;13.092;2023-11-19T09:58:33;6.23;;;3.00;;
12916;SDS011;6526;54.312;13.092;2023-11-19T10:00:59;6.07;;;4.33;;
12916;SDS011;6526;54.312;13.092;2023-11-19T10:03:27;8.60;;;5.30;;
12916;SDS011;6526;54.312;13.092;2023-11-19T10:06:02;7.73;;;3.97;;
12916;SDS011;6526;54.312;13.092;2023-11-19T10:08:29;0.77;;;0.47;;
12916;SDS011;6526;54.312;13.092;2023-11-19T10:10:55;4.93;;;3.93;;
12916;SDS011;6526;54.312;13.092;2023-11-19T10:13:30;4.70;;;3.13;;
12916;SDS011;6526;54.312;13.092;2023-11-19T10:15:59;0.77;;;0.77;;
12916;SDS011;6526;54.312;13.092;2023-11-19T10:18:33;1.97;;;1.80;;
12916;SDS011;6526;54.312;13.092;2023-11-19T10:21:03;3.20;;;2.47;;
12916;SDS011;6526;54.312;13.092;2023-11-19T10:23:30;7.93;;;3.53;;
12916;SDS011;6526;54.312;13.092;2023-11-19T10:26:12;1.07;;;0.97;;
12916;SDS011;6526;54.312;13.092;2023-11-19T10:28:41;3.03;;;2.00;;
12916;SDS011;6526;54.312;13.092;2023-11-19T10:31:14;3.33;;;2.93;;
12916;SDS011;6526;54.312;13.092;2023-11-19T10:33:42;3.00;;;2.50;;
12916;SDS011;6526;54.312;13.092;2023-11-19T10:36:10;0.87;;;0.87;;
12916;SDS011;6526;54.312;13.092;2023-11-19T10:38:40;1.70;;;1.60;;
12916;SDS011;6526;54.312;13.092;2023-11-19T10:41:26;5.67;;;3.13;;
12916;SDS011;6526;54.312;13.092;2023-11-19T10:43:52;2.70;;;1.97;;
12916;SDS011;6526;54.312;13.092;2023-11-19T10:46:18;3.13;;;2.33;;
12916;SDS011;6526;54.312;13.092;2023-11-19T10:48:48;1.20;;;0.70;;
12916;SDS011;6526;54.312;13.092;2023-11-19T10:51:17;7.40;;;2.07;;
12916;SDS011;6526;54.312;13.092;2023-11-19T10:53:49;1.90;;;1.80;;
12916;SDS011;6526;54.312;13.092;2023-11-19T10:56:16;0.97;;;0.87;;
12916;SDS011;6526;54.312;13.092;2023-11-19T10:58:45;3.00;;;1.70;;
12916;SDS011;6526;54.312;13.092;2023-11-19T11:01:15;8.47;;;5.27;;
12916;SDS011;6526;54.312;13.092;2023-11-19T11:03:45;1.73;;;1.60;;
12916;SDS011;6526;54.312;13.092;2023-11-19T11:06:12;2.53;;;1.63;;
12916;SDS011;6526;54.312;13.092;2023-11-19T11:08:39;2.30;;;1.53;;
12916;SDS011;6526;54.312;13.092;2023-11-19T11:11:06;0.27;;;0.27;;
12916;SDS011;6526;54.312;13.092;2023-11-19T11:13:35;1.43;;;1.00;;
12916;SDS011;6526;54.312;13.092;2023-11-19T11:16:04;0.17;;;0.17;;
12916;SDS011;6526;54.312;13.092;2023-11-19T11:18:32;2.40;;;0.93;;
12916;SDS011;6526;54.312;13.092;2023-11-19T11:21:00;1.80;;;1.37;;
12916;SDS011;6526;54.312;13.092;2023-11-19T11:35:13;3.97;;;2.73;;
12916;SDS011;6526;54.312;13.092;2023-11-19T11:37:49;1.23;;;1.13;;
12916;SDS011;6526;54.312;13.092;2023-11-19T11:40:21;0.90;;;0.80;;
12916;SDS011;6526;54.312;13.092;2023-11-19T11:42:48;0.60;;;0.60;;
12916;SDS011;6526;54.312;13.092;2023-11-19T11:45:16;1.20;;;1.13;;
12916;SDS011;6526;54.312;13.092;2023-11-19T11:50:20;1.73;;;0.93;;
12916;SDS011;6526;54.312;13.092;2023-11-19T11:58:01;0.10;;;0.10;;
12916;SDS011;6526;54.312;13.092;2023-11-19T12:00:31;1.80;;;1.20;;
12916;SDS011;6526;54.312;13.092;2023-11-19T12:03:02;1.70;;;0.83;;
12916;SDS011;6526;54.312;13.092;2023-11-19T12:05:31;2.80;;;1.90;;
12916;SDS011;6526;54.312;13.092;2023-11-19T12:08:05;0.20;;;0.20;;
12916;SDS011;6526;54.312;13.092;2023-11-19T12:10:44;1.20;;;0.50;;
12916;SDS011;6526;54.312;13.092;2023-11-19T12:13:12;0.13;;;0.13;;
12916;SDS011;6526;54.312;13.092;2023-11-19T12:18:24;1.57;;;1.10;;
12916;SDS011;6526;54.312;13.092;2023-11-19T12:20:51;0.30;;;0.30;;
12916;SDS011;6526;54.312;13.092;2023-11-19T12:23:17;0.00;;;0.00;;
12916;SDS011;6526;54.312;13.092;2023-11-19T12:25:43;0.00;;;0.00;;
12916;SDS011;6526;54.312;13.092;2023-11-19T12:28:16;0.33;;;0.33;;
12916;SDS011;6526;54.312;13.092;2023-11-19T12:30:43;0.77;;;0.30;;
12916;SDS011;6526;54.312;13.092;2023-11-19T12:33:09;0.20;;;0.20;;
12916;SDS011;6526;54.312;13.092;2023-11-19T12:35:39;0.10;;;0.10;;
12916;SDS011;6526;54.312;13.092;2023-11-19T12:38:07;0.47;;;0.47;;
12916;SDS011;6526;54.312;13.092;2023-11-19T12:40:33;0.33;;;0.33;;
12916;SDS011;6526;54.312;13.092;2023-11-19T12:42:59;0.63;;;0.63;;
12916;SDS011;6526;54.312;13.092;2023-11-19T12:45:34;0.00;;;0.00;;
12916;SDS011;6526;54.312;13.092;2023-11-19T12:48:04;0.00;;;0.00;;
12916;SDS011;6526;54.312;13.092;2023-11-19T12:50:49;0.20;;;0.20;;
12916;SDS011;6526;54.312;13.092;2023-11-19T12:53:18;0.00;;;0.00;;
12916;SDS011;6526;54.312;13.092;2023-11-19T12:55:44;0.30;;;0.30;;
12916;SDS011;6526;54.312;13.092;2023-11-19T12:58:10;1.47;;;1.27;;
12916;SDS011;6526;54.312;13.092;2023-11-19T13:00:58;0.73;;;0.70;;
12916;SDS011;6526;54.312;13.092;2023-11-19T13:03:29;0.00;;;0.00;;
12916;SDS011;6526;54.312;13.092;2023-11-19T13:06:06;0.00;;;0.00;;
12916;SDS011;6526;54.312;13.092;2023-11-19T13:08:39;1.50;;;0.73;;
12916;SDS011;6526;54.312;13.092;2023-11-19T13:11:09;0.00;;;0.00;;
12916;SDS011;6526;54.312;13.092;2023-11-19T13:13:55;0.20;;;0.20;;
12916;SDS011;6526;54.312;13.092;2023-11-19T13:16:23;0.10;;;0.10;;
12916;SDS011;6526;54.312;13.092;2023-11-19T13:18:49;0.00;;;0.00;;
12916;SDS011;6526;54.312;13.092;2023-11-19T13:21:16;0.00;;;0.00;;
12916;SDS011;6526;54.312;13.092;2023-11-19T13:23:43;0.00;;;0.00;;
12916;SDS011;6526;54.312;13.092;2023-11-19T13:26:09;0.00;;;0.00;;
12916;SDS011;6526;54.312;13.092;2023-11-19T13:28:36;4.20;;;1.30;;
12916;SDS011;6526;54.312;13.092;2023-11-19T13:31:02;0.00;;;0.00;;
12916;SDS011;6526;54.312;13.092;2023-11-19T13:33:29;2.03;;;0.57;;
12916;SDS011;6526;54.312;13.092;2023-11-19T13:35:55;0.00;;;0.00;;
12916;SDS011;6526;54.312;13.092;2023-11-19T13:38:22;0.20;;;0.20;;
12916;SDS011;6526;54.312;13.092;2023-11-19T13:40:49;0.33;;;0.33;;
12916;SDS011;6526;54.312;13.092;2023-11-19T13:43:16;0.40;;;0.40;;
12916;SDS011;6526;54.312;13.092;2023-11-19T13:45:42;0.07;;;0.07;;
12916;SDS011;6526;54.312;13.092;2023-11-19T13:48:08;0.00;;;0.00;;
12916;SDS011;6526;54.312;13.092;2023-11-19T13:50:34;0.00;;;0.00;;
12916;SDS011;6526;54.312;13.092;2023-11-19T13:53:00;1.97;;;1.20;;
12916;SDS011;6526;54.312;13.092;2023-11-19T13:55:26;0.00;;;0.00;;
12916;SDS011;6526;54.312;13.092;2023-11-19T13:57:52;0.10;;;0.10;;
12916;SDS011;6526;54.312;13.092;2023-11-19T14:00:18;0.00;;;0.00;;
12916;SDS011;6526;54.312;13.092;2023-11-19T14:02:45;0.00;;;0.00;;
12916;SDS011;6526;54.312;13.092;2023-11-19T14:05:12;0.60;;;0.60;;
12916;SDS011;6526;54.312;13.092;2023-11-19T14:07:40;0.37;;;0.37;;
12916;SDS011;6526;54.312;13.092;2023-11-19T14:10:07;1.37;;;0.37;;
12916;SDS011;6526;54.312;13.092;2023-11-19T14:12:37;0.13;;;0.13;;
12916;SDS011;6526;54.312;13.092;2023-11-19T14:15:03;0.10;;;0.10;;
12916;SDS011;6526;54.312;13.092;2023-11-19T14:17:34;3.07;;;0.43;;
12916;SDS011;6526;54.312;13.092;2023-11-19T14:20:01;3.80;;;2.37;;
12916;SDS011;6526;54.312;13.092;2023-11-19T14:22:45;5.53;;;0.90;;
12916;SDS011;6526;54.312;13.092;2023-11-19T14:25:13;0.07;;;0.07;;
12916;SDS011;6526;54.312;13.092;2023-11-19T14:27:40;19.57;;;11.57;;
12916;SDS011;6526;54.312;13.092;2023-11-19T14:30:08;0.00;;;0.00;;
12916;SDS011;6526;54.312;13.092;2023-11-19T14:32:39;0.70;;;0.67;;
12916;SDS011;6526;54.312;13.092;2023-11-19T14:35:07;0.73;;;0.73;;
12916;SDS011;6526;54.312;13.092;2023-11-19T14:37:33;2.80;;;2.60;;
12916;SDS011;6526;54.312;13.092;2023-11-19T14:40:00;0.00;;;0.00;;
12916;SDS011;6526;54.312;13.092;2023-11-19T14:42:29;0.13;;;0.13;;
12916;SDS011;6526;54.312;13.092;2023-11-19T14:44:55;2.07;;;1.77;;
12916;SDS011;6526;54.312;13.092;2023-11-19T14:47:21;0.00;;;0.00;;
12916;SDS011;6526;54.312;13.092;2023-11-19T14:49:47;0.00;;;0.00;;
12916;SDS011;6526;54.312;13.092;2023-11-19T14:52:13;1.07;;;1.07;;
12916;SDS011;6526;54.312;13.092;2023-11-19T14:54:40;12.27;;;5.23;;
12916;SDS011;6526;54.312;13.092;2023-11-19T14:57:06;0.00;;;0.00;;
12916;SDS011;6526;54.312;13.092;2023-11-19T14:59:36;6.27;;;2.77;;
12916;SDS011;6526;54.312;13.092;2023-11-19T15:02:02;3.07;;;1.13;;
12916;SDS011;6526;54.312;13.092;2023-11-19T15:04:29;0.50;;;0.50;;
12916;SDS011;6526;54.312;13.092;2023-11-19T15:06:58;5.90;;;0.97;;
12916;SDS011;6526;54.312;13.092;2023-11-19T15:09:25;4.33;;;1.63;;
12916;SDS011;6526;54.312;13.092;2023-11-19T15:11:54;4.63;;;1.80;;
12916;SDS011;6526;54.312;13.092;2023-11-19T15:14:22;1.33;;;1.23;;